createdAt,value
2017-12-19T00:00:04.548Z,17.97
2017-12-19T00:02:32.951Z,26.20
2017-12-19T00:05:00.644Z,17.97
2017-12-19T00:07:28.160Z,18.30
2017-12-19T00:09:55.823Z,19.87
2017-12-19T00:12:23.327Z,19.67
2017-12-19T00:14:50.920Z,22.90
2017-12-19T00:17:19.611Z,22.87
2017-12-19T00:19:47.871Z,22.47
2017-12-19T00:22:15.388Z,21.03
2017-12-19T00:24:42.889Z,22.30
2017-12-19T00:27:11.160Z,21.80
2017-12-19T00:29:38.895Z,24.63
2017-12-19T00:32:06.398Z,21.13
2017-12-19T00:34:34.076Z,21.10
2017-12-19T00:37:01.879Z,21.67
2017-12-19T00:39:29.947Z,23.10
2017-12-19T00:41:57.465Z,25.20
2017-12-19T00:44:25.171Z,21.43
2017-12-19T00:46:52.675Z,22.27
2017-12-19T00:49:20.177Z,24.03
2017-12-19T00:51:47.688Z,23.40
2017-12-19T00:54:16.224Z,23.83
2017-12-19T00:56:43.732Z,21.43
2017-12-19T00:59:11.936Z,21.50
2017-12-19T01:01:39.511Z,24.60
2017-12-19T01:04:07.420Z,22.37
2017-12-19T01:06:35.968Z,21.73
2017-12-19T01:09:03.471Z,24.53
2017-12-19T01:11:30.974Z,25.30
2017-12-19T01:13:58.566Z,24.60
2017-12-19T01:16:27.903Z,24.00
2017-12-19T01:18:55.406Z,23.60
2017-12-19T01:21:23.428Z,23.03
2017-12-19T01:23:50.935Z,24.70
2017-12-19T01:26:20.227Z,24.50
2017-12-19T01:28:47.732Z,25.43
2017-12-19T01:31:15.707Z,24.93
2017-12-19T01:33:43.211Z,23.37
2017-12-19T01:36:10.719Z,25.50
2017-12-19T01:38:38.738Z,26.83
2017-12-19T01:41:06.808Z,26.10
2017-12-19T01:43:35.081Z,25.87
2017-12-19T01:46:03.197Z,25.70
2017-12-19T01:48:32.243Z,26.87
2017-12-19T01:50:59.743Z,27.37
2017-12-19T01:53:27.420Z,26.53
2017-12-19T01:55:54.932Z,25.53
2017-12-19T01:58:22.439Z,26.80
2017-12-19T02:00:49.948Z,26.67
2017-12-19T02:03:19.273Z,28.57
2017-12-19T02:05:47.177Z,25.10
2017-12-19T02:08:15.071Z,27.77
2017-12-19T02:10:42.588Z,27.63
2017-12-19T02:13:10.500Z,26.10
2017-12-19T02:15:38.012Z,25.90
2017-12-19T02:18:05.717Z,28.20
2017-12-19T02:20:33.751Z,26.10
2017-12-19T02:23:01.657Z,28.10
2017-12-19T02:25:29.154Z,29.87
2017-12-19T02:27:57.419Z,28.40
2017-12-19T02:30:25.760Z,26.47
2017-12-19T02:32:53.712Z,25.77
2017-12-19T02:35:21.199Z,25.27
2017-12-19T02:37:48.708Z,28.43
2017-12-19T02:40:16.507Z,26.30
2017-12-19T02:42:56.984Z,26.40
2017-12-19T02:45:24.636Z,24.73
2017-12-19T02:47:52.140Z,27.23
2017-12-19T02:50:19.639Z,28.47
2017-12-19T02:52:47.614Z,26.70
2017-12-19T02:55:15.512Z,27.17
2017-12-19T02:57:43.269Z,27.50
2017-12-19T03:00:11.555Z,27.00
2017-12-19T03:02:39.260Z,25.20
2017-12-19T03:05:06.763Z,27.00
2017-12-19T03:07:34.272Z,25.27
2017-12-19T03:10:01.960Z,27.57
2017-12-19T03:12:30.031Z,26.70
2017-12-19T03:14:57.534Z,25.07
2017-12-19T03:17:25.048Z,26.00
2017-12-19T03:19:52.562Z,29.13
2017-12-19T03:22:21.835Z,25.40
2017-12-19T03:24:49.768Z,27.70
2017-12-19T03:27:17.279Z,26.30
2017-12-19T03:29:44.777Z,24.87
2017-12-19T03:32:13.768Z,25.57
2017-12-19T03:34:43.285Z,26.27
2017-12-19T03:37:11.660Z,27.33
2017-12-19T03:39:40.071Z,25.03
2017-12-19T03:42:07.588Z,24.37
2017-12-19T03:44:36.452Z,26.17
2017-12-19T03:47:06.432Z,24.40
2017-12-19T03:49:33.923Z,21.90
2017-12-19T03:52:01.629Z,24.20
2017-12-19T03:54:29.800Z,21.80
2017-12-19T03:56:57.299Z,23.33
2017-12-19T03:59:25.840Z,22.13
2017-12-19T04:01:53.340Z,24.00
2017-12-19T04:04:21.667Z,23.70
2017-12-19T04:06:49.172Z,24.53
2017-12-19T04:09:16.680Z,22.40
2017-12-19T04:11:44.188Z,23.50
2017-12-19T04:14:12.541Z,21.77
2017-12-19T04:16:41.445Z,23.13
2017-12-19T04:19:08.956Z,22.00
2017-12-19T04:21:36.931Z,21.50
2017-12-19T04:24:05.128Z,21.67
2017-12-19T04:26:32.767Z,24.27
2017-12-19T04:29:00.677Z,22.13
2017-12-19T04:31:29.348Z,19.37
2017-12-19T04:33:57.087Z,22.07
2017-12-19T04:36:24.587Z,21.67
2017-12-19T04:38:52.956Z,22.97
2017-12-19T04:41:21.544Z,23.90
2017-12-19T04:43:49.017Z,24.27
2017-12-19T04:46:16.515Z,24.90
2017-12-19T04:48:44.179Z,24.10
2017-12-19T04:51:11.684Z,25.90
2017-12-19T04:53:39.183Z,23.40
2017-12-19T04:56:07.154Z,24.80
2017-12-19T04:58:35.419Z,25.50
2017-12-19T05:01:02.926Z,25.63
2017-12-19T05:03:30.430Z,23.20
2017-12-19T05:05:57.972Z,24.83
2017-12-19T05:08:25.427Z,23.13
2017-12-19T05:10:53.435Z,23.73
2017-12-19T05:13:20.935Z,25.53
2017-12-19T05:15:48.847Z,22.10
2017-12-19T05:18:16.349Z,21.53
2017-12-19T05:20:44.795Z,23.33
2017-12-19T05:23:12.308Z,22.90
2017-12-19T05:25:39.811Z,23.50
2017-12-19T05:28:07.319Z,21.43
2017-12-19T05:30:36.470Z,23.50
2017-12-19T05:33:03.976Z,22.70
2017-12-19T05:35:31.991Z,23.60
2017-12-19T05:37:59.507Z,21.03
2017-12-19T05:40:27.316Z,22.97
2017-12-19T05:42:54.820Z,23.60
2017-12-19T05:45:23.094Z,22.17
2017-12-19T05:47:50.600Z,24.57
2017-12-19T05:50:18.272Z,22.70
2017-12-19T05:52:45.781Z,22.83
2017-12-19T05:55:13.279Z,22.33
2017-12-19T05:57:41.179Z,20.90
2017-12-19T06:00:09.628Z,19.97
2017-12-19T06:02:37.143Z,20.10
2017-12-19T06:05:05.177Z,20.13
2017-12-19T06:07:33.513Z,21.17
2017-12-19T06:10:01.036Z,19.00
2017-12-19T06:12:29.448Z,18.30
2017-12-19T06:14:57.753Z,17.83
2017-12-19T06:17:25.258Z,19.40
2017-12-19T06:19:52.751Z,17.00
2017-12-19T06:22:20.425Z,16.97
2017-12-19T06:24:48.847Z,17.00
2017-12-19T06:27:16.876Z,16.27
2017-12-19T06:29:44.375Z,15.10
2017-12-19T06:32:12.020Z,15.83
2017-12-19T06:34:39.525Z,19.43
2017-12-19T06:37:07.031Z,18.07
2017-12-19T06:39:34.536Z,19.90
2017-12-19T06:42:02.223Z,18.60
2017-12-19T06:44:29.744Z,18.43
2017-12-19T06:46:58.008Z,18.73
2017-12-19T06:49:26.505Z,20.73
2017-12-19T06:51:54.017Z,19.13
2017-12-19T06:54:21.532Z,16.50
2017-12-19T06:56:49.419Z,18.10
2017-12-19T06:59:16.928Z,16.03
2017-12-19T07:01:44.671Z,16.47
2017-12-19T07:04:12.152Z,15.70
2017-12-19T07:06:40.050Z,15.80
2017-12-19T07:09:07.968Z,17.00
2017-12-19T07:11:37.239Z,16.00
2017-12-19T07:14:04.747Z,17.47
2017-12-19T07:16:32.444Z,16.00
2017-12-19T07:19:00.065Z,16.67
2017-12-19T07:21:28.332Z,17.37
2017-12-19T07:23:56.453Z,15.10
2017-12-19T07:26:23.954Z,16.90
2017-12-19T07:28:52.247Z,16.33
2017-12-19T07:31:19.747Z,16.47
2017-12-19T07:33:47.262Z,15.40
2017-12-19T07:36:15.788Z,16.00
2017-12-19T07:38:44.159Z,17.70
2017-12-19T07:41:12.362Z,17.07
2017-12-19T07:43:39.859Z,18.00
2017-12-19T07:46:07.763Z,19.03
2017-12-19T07:48:36.087Z,18.37
2017-12-19T07:51:04.216Z,18.80
2017-12-19T07:53:31.711Z,16.70
2017-12-19T07:55:59.723Z,16.40
2017-12-19T07:58:27.227Z,16.47
2017-12-19T08:00:54.732Z,16.30
2017-12-19T08:03:22.228Z,14.90
2017-12-19T08:05:49.890Z,16.43
2017-12-19T08:08:17.392Z,18.20
2017-12-19T08:10:45.100Z,16.90
2017-12-19T08:13:13.156Z,16.97
2017-12-19T08:15:41.235Z,16.07
2017-12-19T08:18:08.742Z,15.67
2017-12-19T08:20:36.240Z,15.33
2017-12-19T08:23:04.142Z,16.47
2017-12-19T08:25:32.407Z,16.53
2017-12-19T08:28:00.365Z,15.33
2017-12-19T08:30:28.431Z,16.27
2017-12-19T08:32:56.503Z,13.80
2017-12-19T08:35:24.124Z,14.30
2017-12-19T08:37:52.404Z,15.23
2017-12-19T08:40:20.372Z,14.53
2017-12-19T08:42:48.480Z,15.90
2017-12-19T08:45:15.992Z,16.07
2017-12-19T08:47:43.701Z,16.10
2017-12-19T08:50:12.076Z,15.93
2017-12-19T08:52:39.783Z,14.90
2017-12-19T08:55:07.287Z,13.90
2017-12-19T08:57:35.672Z,16.13
2017-12-19T09:00:03.312Z,15.70
2017-12-19T09:02:32.607Z,15.37
2017-12-19T09:05:00.103Z,15.63
2017-12-19T09:07:27.856Z,17.63
2017-12-19T09:09:55.380Z,15.07
2017-12-19T09:12:22.907Z,15.13
2017-12-19T09:14:51.248Z,15.23
2017-12-19T09:17:19.027Z,17.00
2017-12-19T09:19:46.529Z,15.57
2017-12-19T09:22:14.228Z,16.30
2017-12-19T09:24:42.135Z,13.50
2017-12-19T09:27:10.414Z,14.07
2017-12-19T09:29:38.110Z,15.17
2017-12-19T09:32:06.275Z,13.27
2017-12-19T09:34:34.153Z,14.97
2017-12-19T09:37:02.657Z,13.00
2017-12-19T09:39:30.160Z,14.50
2017-12-19T09:41:57.875Z,13.83
2017-12-19T09:44:25.792Z,14.47
2017-12-19T09:46:53.687Z,15.13
2017-12-19T09:49:21.415Z,11.30
2017-12-19T09:51:48.923Z,13.10
2017-12-19T09:54:16.436Z,11.77
2017-12-19T09:56:44.699Z,13.70
2017-12-19T09:59:12.220Z,13.10
2017-12-19T10:01:39.932Z,12.70
2017-12-19T10:04:07.431Z,13.13
2017-12-19T10:06:35.818Z,15.10
2017-12-19T10:09:03.531Z,12.70
2017-12-19T10:11:31.035Z,13.60
2017-12-19T10:13:58.740Z,14.97
2017-12-19T10:16:26.262Z,14.30
2017-12-19T10:18:53.772Z,15.53
2017-12-19T10:21:22.450Z,12.90
2017-12-19T10:23:50.167Z,13.67
2017-12-19T10:26:19.161Z,12.97
2017-12-19T10:28:46.656Z,16.00
2017-12-19T10:31:14.928Z,14.60
2017-12-19T10:33:42.438Z,12.93
2017-12-19T10:36:09.943Z,13.90
2017-12-19T10:38:37.669Z,14.90
2017-12-19T10:41:05.180Z,15.20
2017-12-19T10:43:32.835Z,13.53
2017-12-19T10:46:01.211Z,14.47
2017-12-19T10:48:28.722Z,14.00
2017-12-19T10:50:57.103Z,15.20
2017-12-19T10:53:24.620Z,13.73
2017-12-19T10:55:52.279Z,13.83
2017-12-19T10:58:20.357Z,14.17
2017-12-19T11:00:48.152Z,15.07
2017-12-19T11:03:16.060Z,11.20
2017-12-19T11:05:44.339Z,15.63
2017-12-19T11:08:12.223Z,13.70
2017-12-19T11:10:39.724Z,12.67
2017-12-19T11:13:07.242Z,14.13
2017-12-19T11:15:35.043Z,12.70
2017-12-19T11:18:02.552Z,14.57
2017-12-19T11:20:30.060Z,12.87
2017-12-19T11:22:58.614Z,13.77
2017-12-19T11:25:26.107Z,15.30
2017-12-19T11:27:53.699Z,14.60
2017-12-19T11:30:22.239Z,13.50
2017-12-19T11:32:50.003Z,13.97
2017-12-19T11:35:17.511Z,14.43
2017-12-19T11:37:45.227Z,13.00
2017-12-19T11:40:12.727Z,11.90
2017-12-19T11:42:40.445Z,13.10
2017-12-19T11:45:08.515Z,12.93
2017-12-19T11:47:36.458Z,12.80
2017-12-19T11:50:04.360Z,12.20
2017-12-19T11:52:32.384Z,10.80
2017-12-19T11:54:59.887Z,13.93
2017-12-19T11:57:27.639Z,15.30
2017-12-19T11:59:55.404Z,13.60
2017-12-19T12:02:22.912Z,12.63
2017-12-19T12:04:50.821Z,12.07
2017-12-19T12:07:18.344Z,13.80
2017-12-19T12:09:45.860Z,11.87
2017-12-19T12:12:13.362Z,12.80
2017-12-19T12:14:41.066Z,13.07
2017-12-19T12:17:08.823Z,12.40
2017-12-19T12:19:36.872Z,11.50
2017-12-19T12:22:04.424Z,12.00
2017-12-19T12:24:33.044Z,10.23
2017-12-19T12:27:01.375Z,12.00
2017-12-19T12:29:29.178Z,11.80
2017-12-19T12:31:56.799Z,10.73
2017-12-19T12:34:25.072Z,11.00
2017-12-19T12:36:52.647Z,11.13
2017-12-19T12:39:20.195Z,11.63
2017-12-19T12:41:47.704Z,9.73
2017-12-19T12:44:15.199Z,9.57
2017-12-19T12:46:42.912Z,9.37
2017-12-19T12:49:10.412Z,8.10
2017-12-19T12:51:37.907Z,8.73
2017-12-19T12:54:05.667Z,7.80
2017-12-19T12:56:33.174Z,6.30
2017-12-19T12:59:00.676Z,7.87
2017-12-19T13:01:29.790Z,6.40
2017-12-19T13:03:57.411Z,6.83
2017-12-19T13:06:25.671Z,6.80
2017-12-19T13:08:53.170Z,7.00
2017-12-19T13:11:20.667Z,6.53
2017-12-19T13:13:49.691Z,6.90
2017-12-19T13:16:17.955Z,6.60
2017-12-19T13:18:46.083Z,6.50
2017-12-19T13:21:13.636Z,7.17
2017-12-19T13:23:41.205Z,5.93
2017-12-19T13:26:09.912Z,6.43
2017-12-19T13:28:37.653Z,7.63
2017-12-19T13:31:05.971Z,6.10
2017-12-19T13:33:33.921Z,7.27
2017-12-19T13:36:01.385Z,9.10
2017-12-19T13:38:28.895Z,9.30
2017-12-19T13:40:57.068Z,9.27
2017-12-19T13:43:24.575Z,10.77
2017-12-19T13:45:52.179Z,12.83
2017-12-19T13:48:20.088Z,14.07
2017-12-19T13:50:48.792Z,14.23
2017-12-19T13:53:16.523Z,18.03
2017-12-19T13:55:44.428Z,14.40
2017-12-19T13:58:12.360Z,14.00
2017-12-19T14:00:39.856Z,17.10
2017-12-19T14:03:08.220Z,16.77
2017-12-19T14:05:36.136Z,17.63
2017-12-19T14:08:04.824Z,16.97
2017-12-19T14:10:32.404Z,17.77
2017-12-19T14:13:00.307Z,17.13
2017-12-19T14:15:28.204Z,14.00
2017-12-19T14:17:55.719Z,14.80
2017-12-19T14:20:23.211Z,15.10
2017-12-19T14:22:50.911Z,13.03
2017-12-19T14:25:18.472Z,16.03
2017-12-19T14:27:45.971Z,14.27
2017-12-19T14:30:14.506Z,16.00
2017-12-19T14:32:42.568Z,14.67
2017-12-19T14:35:11.098Z,14.20
2017-12-19T14:37:38.604Z,14.67
2017-12-19T14:40:06.219Z,15.17
2017-12-19T14:42:33.724Z,12.30
2017-12-19T14:45:02.364Z,13.00
2017-12-19T14:47:29.868Z,11.90
2017-12-19T14:49:57.507Z,12.80
2017-12-19T14:52:25.008Z,13.07
2017-12-19T14:54:52.917Z,12.23
2017-12-19T14:57:21.420Z,11.97
2017-12-19T14:59:49.931Z,13.60
2017-12-19T15:02:17.488Z,13.53
2017-12-19T15:04:45.495Z,15.07
2017-12-19T15:07:13.763Z,14.23
2017-12-19T15:09:41.591Z,13.73
2017-12-19T15:12:09.248Z,13.37
2017-12-19T15:14:38.324Z,13.50
2017-12-19T15:17:06.235Z,14.20
2017-12-19T15:19:33.779Z,12.70
2017-12-19T15:22:01.307Z,13.27
2017-12-19T15:24:29.424Z,12.47
2017-12-19T15:26:57.039Z,13.13
2017-12-19T15:29:24.527Z,12.33
2017-12-19T15:34:28.041Z,12.10
2017-12-19T15:36:55.817Z,13.57
2017-12-19T15:39:23.315Z,13.57
2017-12-19T15:41:52.472Z,14.17
2017-12-19T15:44:23.110Z,13.60
2017-12-19T15:46:50.852Z,14.60
2017-12-19T15:49:18.617Z,15.23
2017-12-19T15:51:46.124Z,14.00
2017-12-19T15:54:14.350Z,13.40
2017-12-19T15:56:42.400Z,16.70
2017-12-19T15:59:09.975Z,15.70
2017-12-19T16:01:37.611Z,16.70
2017-12-19T16:04:05.200Z,16.00
2017-12-19T16:06:32.732Z,15.10
2017-12-19T16:09:00.432Z,15.37
2017-12-19T16:11:27.972Z,15.67
2017-12-19T16:13:55.524Z,15.83
2017-12-19T16:16:23.101Z,13.87
2017-12-19T16:18:50.603Z,15.43
2017-12-19T16:21:19.539Z,14.90
2017-12-19T16:23:47.039Z,13.10
2017-12-19T16:26:14.544Z,13.90
2017-12-19T16:28:42.220Z,14.10
2017-12-19T16:31:10.128Z,14.03
2017-12-19T16:33:38.400Z,14.90
2017-12-19T16:36:06.433Z,12.93
2017-12-19T16:38:34.194Z,13.70
2017-12-19T16:41:01.739Z,14.90
2017-12-19T16:43:29.415Z,11.83
2017-12-19T16:45:56.919Z,14.40
2017-12-19T16:48:25.055Z,15.27
2017-12-19T16:50:52.668Z,12.87
2017-12-19T16:53:20.175Z,13.57
2017-12-19T16:55:47.716Z,13.33
2017-12-19T16:58:15.624Z,13.70
2017-12-19T17:00:43.139Z,12.57
2017-12-19T17:03:10.905Z,12.83
2017-12-19T17:05:38.466Z,12.60
2017-12-19T17:08:06.130Z,15.60
2017-12-19T17:10:33.632Z,16.73
2017-12-19T17:13:01.903Z,14.77
2017-12-19T17:15:29.409Z,26.43
2017-12-19T17:17:57.051Z,17.80
2017-12-19T17:20:24.544Z,20.57
2017-12-19T17:22:52.062Z,20.43
2017-12-19T17:25:20.913Z,21.73
2017-12-19T17:27:48.832Z,20.97
2017-12-19T17:30:16.888Z,19.20
2017-12-19T17:32:45.620Z,16.50
2017-12-19T17:35:13.864Z,19.27
2017-12-19T17:37:41.802Z,16.53
2017-12-19T17:40:09.303Z,18.87
2017-12-19T17:42:37.567Z,17.57
2017-12-19T17:45:05.083Z,18.70
2017-12-19T17:47:32.584Z,18.53
2017-12-19T17:50:00.145Z,20.13
2017-12-19T17:52:28.422Z,17.47
2017-12-19T17:54:55.984Z,24.73
2017-12-19T17:57:23.515Z,19.10
2017-12-19T17:59:51.619Z,18.67
2017-12-19T18:02:19.379Z,20.43
2017-12-19T18:04:47.154Z,19.17
2017-12-19T18:07:14.678Z,18.17
2017-12-19T18:09:42.175Z,20.10
2017-12-19T18:12:09.685Z,20.53
2017-12-19T18:14:37.188Z,16.47
2017-12-19T18:17:05.442Z,18.43
2017-12-19T18:19:33.605Z,17.10
2017-12-19T18:22:01.149Z,20.60
2017-12-19T18:24:28.656Z,20.07
2017-12-19T18:26:56.554Z,19.37
2017-12-19T18:29:25.092Z,20.40
2017-12-19T18:31:52.596Z,21.80
2017-12-19T18:34:20.584Z,21.07
2017-12-19T18:36:48.687Z,23.00
2017-12-19T18:39:16.192Z,20.50
2017-12-19T18:41:43.904Z,23.00
2017-12-19T18:44:11.803Z,24.03
2017-12-19T18:46:39.433Z,23.43
2017-12-19T18:49:06.936Z,25.87
2017-12-19T18:51:34.655Z,26.17
2017-12-19T18:54:02.650Z,24.37
2017-12-19T18:56:30.912Z,26.23
2017-12-19T18:58:58.411Z,28.53
2017-12-19T19:01:26.368Z,26.53
2017-12-19T19:03:54.596Z,30.43
2017-12-19T19:06:22.511Z,25.60
2017-12-19T19:08:50.013Z,26.77
2017-12-19T19:11:17.692Z,30.60
2017-12-19T19:13:45.192Z,31.23
2017-12-19T19:16:13.199Z,31.60
2017-12-19T19:18:41.235Z,29.87
2017-12-19T19:21:08.744Z,30.00
2017-12-19T19:23:36.481Z,28.17
2017-12-19T19:26:03.963Z,33.17
2017-12-19T19:28:31.475Z,30.57
2017-12-19T19:30:59.483Z,29.40
2017-12-19T19:33:27.002Z,29.83
2017-12-19T19:35:55.013Z,33.47
2017-12-19T19:38:22.734Z,29.00
2017-12-19T19:40:50.243Z,29.13
2017-12-19T19:43:19.266Z,28.70
2017-12-19T19:45:47.264Z,33.60
2017-12-19T19:48:14.815Z,30.53
2017-12-19T19:50:42.517Z,32.30
2017-12-19T19:53:10.543Z,31.90
2017-12-19T19:55:38.632Z,31.57
2017-12-19T19:58:06.537Z,32.80
2017-12-19T20:00:34.800Z,31.50
2017-12-19T20:03:02.564Z,32.80
2017-12-19T20:05:31.740Z,30.87
2017-12-19T20:07:59.604Z,33.43
2017-12-19T20:10:27.113Z,31.63
2017-12-19T20:12:55.510Z,27.90
2017-12-19T20:15:23.703Z,27.90
2017-12-19T20:17:52.220Z,29.87
2017-12-19T20:20:19.724Z,30.10
2017-12-19T20:22:47.227Z,30.17
2017-12-19T20:25:14.867Z,31.80
2017-12-19T20:27:42.355Z,33.07
2017-12-19T20:30:10.424Z,33.20
2017-12-19T20:32:38.375Z,27.83
2017-12-19T20:35:06.272Z,27.00
2017-12-19T20:37:34.015Z,28.20
2017-12-19T20:40:02.396Z,28.23
2017-12-19T20:42:29.900Z,27.80
2017-12-19T20:44:57.516Z,25.87
2017-12-19T20:47:25.411Z,28.37
2017-12-19T20:49:52.918Z,22.97
2017-12-19T20:52:20.416Z,26.17
2017-12-19T20:54:48.549Z,27.53
2017-12-19T20:57:17.472Z,24.80
2017-12-19T20:59:44.972Z,24.70
2017-12-19T21:02:12.580Z,27.97
2017-12-19T21:04:40.795Z,21.63
2017-12-19T21:07:08.696Z,24.47
2017-12-19T21:09:36.209Z,25.63
2017-12-19T21:12:04.661Z,25.40
2017-12-19T21:14:32.808Z,26.87
2017-12-19T21:17:00.295Z,23.60
2017-12-19T21:19:29.636Z,25.30
2017-12-19T21:21:57.132Z,22.60
2017-12-19T21:24:25.208Z,24.77
2017-12-19T21:26:53.388Z,25.17
2017-12-19T21:29:21.046Z,21.60
2017-12-19T21:31:48.815Z,23.97
2017-12-19T21:34:16.317Z,22.70
2017-12-19T21:36:43.824Z,22.97
2017-12-19T21:39:12.079Z,24.27
2017-12-19T21:41:39.607Z,23.30
2017-12-19T21:44:07.324Z,22.40
2017-12-19T21:46:35.391Z,23.27
2017-12-19T21:49:03.161Z,22.17
2017-12-19T21:51:31.060Z,23.03
2017-12-19T21:54:00.751Z,21.40
2017-12-19T21:56:28.654Z,21.20
2017-12-19T21:58:56.396Z,18.87
2017-12-19T22:01:24.700Z,20.63
2017-12-19T22:03:52.208Z,17.97
2017-12-19T22:06:19.707Z,21.00
2017-12-19T22:08:47.416Z,23.17
2017-12-19T22:11:15.933Z,21.73
2017-12-19T22:13:44.212Z,20.97
2017-12-19T22:16:11.892Z,21.77
2017-12-19T22:18:39.395Z,19.43
2017-12-19T22:21:07.472Z,20.77
2017-12-19T22:23:35.226Z,19.27
2017-12-19T22:26:02.982Z,19.43
2017-12-19T22:28:30.463Z,20.10
2017-12-19T22:30:58.823Z,18.77
2017-12-19T22:33:26.593Z,19.33
2017-12-19T22:35:54.104Z,22.43
2017-12-19T22:38:21.603Z,17.63
2017-12-19T22:40:49.223Z,17.23
2017-12-19T22:43:16.724Z,18.17
2017-12-19T22:45:44.489Z,18.30
2017-12-19T22:48:11.988Z,17.83
2017-12-19T22:50:39.713Z,18.67
2017-12-19T22:53:07.467Z,17.60
2017-12-19T22:55:35.231Z,18.47
2017-12-19T22:58:02.735Z,15.83
2017-12-19T23:00:30.441Z,17.57
2017-12-19T23:02:57.944Z,16.70
2017-12-19T23:05:25.567Z,17.37
2017-12-19T23:07:53.127Z,14.97
2017-12-19T23:10:20.891Z,17.23
2017-12-19T23:12:50.530Z,16.60
2017-12-19T23:15:18.035Z,16.10
2017-12-19T23:17:46.640Z,17.00
2017-12-19T23:20:14.143Z,14.10
2017-12-19T23:22:42.134Z,13.33
2017-12-19T23:25:10.535Z,12.40
2017-12-19T23:27:38.052Z,12.90
2017-12-19T23:30:06.519Z,12.37
2017-12-19T23:32:34.111Z,14.23
2017-12-19T23:35:01.622Z,11.93
2017-12-19T23:37:29.147Z,13.20
2017-12-19T23:39:57.407Z,12.40
2017-12-19T23:42:24.903Z,13.37
2017-12-19T23:44:52.819Z,13.13
2017-12-19T23:47:20.315Z,13.33
2017-12-19T23:49:50.023Z,11.77
2017-12-19T23:52:17.793Z,12.33
2017-12-19T23:54:45.300Z,13.07
2017-12-19T23:57:12.791Z,12.87
2017-12-19T23:59:40.467Z,13.07
